sensor_id;sensor_type;location;lat;lon;timestamp;temperature;humidity
7720;DHT22;3902;49.474;8.616;2023-08-21T00:00:38;26.00;99.90
7720;DHT22;3902;49.474;8.616;2023-08-21T00:03:03;25.90;99.90
7720;DHT22;3902;49.474;8.616;2023-08-21T00:05:29;25.90;99.90
7720;DHT22;3902;49.474;8.616;2023-08-21T00:07:54;25.90;99.90
7720;DHT22;3902;49.474;8.616;2023-08-21T00:10:20;25.80;99.90
7720;DHT22;3902;49.474;8.616;2023-08-21T00:12:45;25.80;99.90
7720;DHT22;3902;49.474;8.616;2023-08-21T00:15:11;25.70;99.90
7720;DHT22;3902;49.474;8.616;2023-08-21T00:17:36;25.70;99.90
7720;DHT22;3902;49.474;8.616;2023-08-21T00:20:02;25.70;99.90
7720;DHT22;3902;49.474;8.616;2023-08-21T00:22:29;25.70;99.90
7720;DHT22;3902;49.474;8.616;2023-08-21T00:24:55;25.60;99.90
7720;DHT22;3902;49.474;8.616;2023-08-21T00:27:20;25.60;99.90
7720;DHT22;3902;49.474;8.616;2023-08-21T00:29:46;25.70;99.90
7720;DHT22;3902;49.474;8.616;2023-08-21T00:32:11;25.60;99.90
7720;DHT22;3902;49.474;8.616;2023-08-21T00:34:37;25.60;99.90
7720;DHT22;3902;49.474;8.616;2023-08-21T00:37:03;25.50;99.90
7720;DHT22;3902;49.474;8.616;2023-08-21T00:39:29;25.50;99.90
7720;DHT22;3902;49.474;8.616;2023-08-21T00:41:55;25.50;99.90
7720;DHT22;3902;49.474;8.616;2023-08-21T00:44:20;25.50;99.90
7720;DHT22;3902;49.474;8.616;2023-08-21T00:46:46;25.50;99.90
7720;DHT22;3902;49.474;8.616;2023-08-21T00:49:11;25.40;99.90
7720;DHT22;3902;49.474;8.616;2023-08-21T00:51:37;25.40;99.90
7720;DHT22;3902;49.474;8.616;2023-08-21T00:54:03;25.50;99.90
7720;DHT22;3902;49.474;8.616;2023-08-21T00:56:29;25.40;99.90
7720;DHT22;3902;49.474;8.616;2023-08-21T00:58:56;25.40;99.90
7720;DHT22;3902;49.474;8.616;2023-08-21T01:01:24;25.30;99.90
7720;DHT22;3902;49.474;8.616;2023-08-21T01:03:52;25.30;99.90
7720;DHT22;3902;49.474;8.616;2023-08-21T01:06:19;25.20;99.90
7720;DHT22;3902;49.474;8.616;2023-08-21T01:09:02;25.30;99.90
7720;DHT22;3902;49.474;8.616;2023-08-21T01:16:56;25.10;99.90
7720;DHT22;3902;49.474;8.616;2023-08-21T01:19:42;25.10;99.90
7720;DHT22;3902;49.474;8.616;2023-08-21T01:22:08;25.10;99.90
7720;DHT22;3902;49.474;8.616;2023-08-21T01:24:34;25.10;99.90
7720;DHT22;3902;49.474;8.616;2023-08-21T01:27:00;25.10;99.90
7720;DHT22;3902;49.474;8.616;2023-08-21T01:29:26;25.10;99.90
7720;DHT22;3902;49.474;8.616;2023-08-21T01:34:48;25.00;99.90
7720;DHT22;3902;49.474;8.616;2023-08-21T01:37:17;25.10;99.90
7720;DHT22;3902;49.474;8.616;2023-08-21T01:39:42;25.10;99.90
7720;DHT22;3902;49.474;8.616;2023-08-21T01:42:08;25.10;99.90
7720;DHT22;3902;49.474;8.616;2023-08-21T01:44:34;25.00;99.90
7720;DHT22;3902;49.474;8.616;2023-08-21T01:46:59;25.00;99.90
7720;DHT22;3902;49.474;8.616;2023-08-21T01:49:25;25.00;99.90
7720;DHT22;3902;49.474;8.616;2023-08-21T01:51:50;25.00;99.90
7720;DHT22;3902;49.474;8.616;2023-08-21T01:54:16;24.90;99.90
7720;DHT22;3902;49.474;8.616;2023-08-21T01:56:41;24.90;99.90
7720;DHT22;3902;49.474;8.616;2023-08-21T01:59:07;24.90;99.90
7720;DHT22;3902;49.474;8.616;2023-08-21T02:01:33;24.90;99.90
7720;DHT22;3902;49.474;8.616;2023-08-21T02:03:59;24.90;99.90
7720;DHT22;3902;49.474;8.616;2023-08-21T02:06:24;24.80;99.90
7720;DHT22;3902;49.474;8.616;2023-08-21T02:08:50;24.80;99.90
7720;DHT22;3902;49.474;8.616;2023-08-21T02:11:15;24.80;99.90
7720;DHT22;3902;49.474;8.616;2023-08-21T02:13:41;24.80;99.90
7720;DHT22;3902;49.474;8.616;2023-08-21T02:16:06;24.80;99.90
7720;DHT22;3902;49.474;8.616;2023-08-21T02:18:32;24.70;99.90
7720;DHT22;3902;49.474;8.616;2023-08-21T02:20:59;24.80;99.90
7720;DHT22;3902;49.474;8.616;2023-08-21T02:23:25;24.70;99.90
7720;DHT22;3902;49.474;8.616;2023-08-21T02:25:50;24.80;99.90
7720;DHT22;3902;49.474;8.616;2023-08-21T02:28:16;24.70;99.90
7720;DHT22;3902;49.474;8.616;2023-08-21T02:30:42;24.70;99.90
7720;DHT22;3902;49.474;8.616;2023-08-21T02:33:07;24.70;99.90
7720;DHT22;3902;49.474;8.616;2023-08-21T02:35:33;24.70;99.90
7720;DHT22;3902;49.474;8.616;2023-08-21T02:37:58;24.60;99.90
7720;DHT22;3902;49.474;8.616;2023-08-21T02:40:24;24.60;99.90
7720;DHT22;3902;49.474;8.616;2023-08-21T02:42:50;24.70;99.90
7720;DHT22;3902;49.474;8.616;2023-08-21T02:45:15;24.60;99.90
7720;DHT22;3902;49.474;8.616;2023-08-21T02:47:42;24.60;99.90
7720;DHT22;3902;49.474;8.616;2023-08-21T02:50:09;24.50;99.90
7720;DHT22;3902;49.474;8.616;2023-08-21T02:52:35;24.40;99.90
7720;DHT22;3902;49.474;8.616;2023-08-21T02:55:02;24.40;99.90
7720;DHT22;3902;49.474;8.616;2023-08-21T02:57:28;24.40;99.90
7720;DHT22;3902;49.474;8.616;2023-08-21T02:59:54;24.50;99.90
7720;DHT22;3902;49.474;8.616;2023-08-21T03:02:20;24.50;99.90
7720;DHT22;3902;49.474;8.616;2023-08-21T03:04:46;24.50;99.90
7720;DHT22;3902;49.474;8.616;2023-08-21T03:07:12;24.40;99.90
7720;DHT22;3902;49.474;8.616;2023-08-21T03:09:38;24.40;99.90
7720;DHT22;3902;49.474;8.616;2023-08-21T03:12:04;24.40;99.90
7720;DHT22;3902;49.474;8.616;2023-08-21T03:14:30;24.40;99.90
7720;DHT22;3902;49.474;8.616;2023-08-21T03:16:55;24.30;99.90
7720;DHT22;3902;49.474;8.616;2023-08-21T03:19:21;24.40;99.90
7720;DHT22;3902;49.474;8.616;2023-08-21T03:21:46;24.30;99.90
7720;DHT22;3902;49.474;8.616;2023-08-21T03:24:12;24.30;99.90
7720;DHT22;3902;49.474;8.616;2023-08-21T03:26:37;24.20;99.90
7720;DHT22;3902;49.474;8.616;2023-08-21T03:29:03;24.20;99.90
7720;DHT22;3902;49.474;8.616;2023-08-21T03:31:30;24.20;99.90
7720;DHT22;3902;49.474;8.616;2023-08-21T03:33:55;24.20;99.90
7720;DHT22;3902;49.474;8.616;2023-08-21T03:36:21;24.20;99.90
7720;DHT22;3902;49.474;8.616;2023-08-21T03:38:56;24.20;99.90
7720;DHT22;3902;49.474;8.616;2023-08-21T03:41:23;24.20;99.90
7720;DHT22;3902;49.474;8.616;2023-08-21T03:43:48;24.20;99.90
7720;DHT22;3902;49.474;8.616;2023-08-21T03:46:13;24.20;99.90
7720;DHT22;3902;49.474;8.616;2023-08-21T03:48:39;24.20;99.90
7720;DHT22;3902;49.474;8.616;2023-08-21T03:51:04;24.10;99.90
7720;DHT22;3902;49.474;8.616;2023-08-21T03:53:30;24.10;99.90
7720;DHT22;3902;49.474;8.616;2023-08-21T03:55:55;24.10;99.90
7720;DHT22;3902;49.474;8.616;2023-08-21T03:58:21;24.10;99.90
7720;DHT22;3902;49.474;8.616;2023-08-21T04:00:46;24.00;99.90
7720;DHT22;3902;49.474;8.616;2023-08-21T04:03:12;24.10;99.90
7720;DHT22;3902;49.474;8.616;2023-08-21T04:05:38;24.10;99.90
7720;DHT22;3902;49.474;8.616;2023-08-21T04:08:04;24.00;99.90
7720;DHT22;3902;49.474;8.616;2023-08-21T04:10:29;24.00;99.90
7720;DHT22;3902;49.474;8.616;2023-08-21T04:12:55;24.00;99.90
7720;DHT22;3902;49.474;8.616;2023-08-21T04:15:20;23.90;99.90
7720;DHT22;3902;49.474;8.616;2023-08-21T04:17:46;23.90;99.90
7720;DHT22;3902;49.474;8.616;2023-08-21T04:20:11;23.90;99.90
7720;DHT22;3902;49.474;8.616;2023-08-21T04:22:37;23.80;99.90
7720;DHT22;3902;49.474;8.616;2023-08-21T04:25:02;23.80;99.90
7720;DHT22;3902;49.474;8.616;2023-08-21T04:27:28;23.80;99.90
7720;DHT22;3902;49.474;8.616;2023-08-21T04:29:53;23.70;99.90
7720;DHT22;3902;49.474;8.616;2023-08-21T04:32:19;23.80;99.90
7720;DHT22;3902;49.474;8.616;2023-08-21T04:34:44;23.80;99.90
7720;DHT22;3902;49.474;8.616;2023-08-21T04:37:10;23.70;99.90
7720;DHT22;3902;49.474;8.616;2023-08-21T04:39:35;23.80;99.90
7720;DHT22;3902;49.474;8.616;2023-08-21T04:42:02;23.80;99.90
7720;DHT22;3902;49.474;8.616;2023-08-21T04:44:27;23.80;99.90
7720;DHT22;3902;49.474;8.616;2023-08-21T04:46:53;23.70;99.90
7720;DHT22;3902;49.474;8.616;2023-08-21T04:49:18;23.70;99.90
7720;DHT22;3902;49.474;8.616;2023-08-21T04:51:44;23.70;99.90
7720;DHT22;3902;49.474;8.616;2023-08-21T04:54:09;23.70;99.90
7720;DHT22;3902;49.474;8.616;2023-08-21T04:56:35;23.70;99.90
7720;DHT22;3902;49.474;8.616;2023-08-21T04:59:00;23.70;99.90
7720;DHT22;3902;49.474;8.616;2023-08-21T05:01:26;23.70;99.90
7720;DHT22;3902;49.474;8.616;2023-08-21T05:03:51;23.70;99.90
7720;DHT22;3902;49.474;8.616;2023-08-21T05:06:17;23.70;99.90
7720;DHT22;3902;49.474;8.616;2023-08-21T05:08:42;23.70;99.90
7720;DHT22;3902;49.474;8.616;2023-08-21T05:11:08;23.70;99.90
7720;DHT22;3902;49.474;8.616;2023-08-21T05:13:33;23.70;99.90
7720;DHT22;3902;49.474;8.616;2023-08-21T05:16:01;23.70;99.90
7720;DHT22;3902;49.474;8.616;2023-08-21T05:18:27;23.70;99.90
7720;DHT22;3902;49.474;8.616;2023-08-21T05:20:55;23.70;99.90
7720;DHT22;3902;49.474;8.616;2023-08-21T05:23:20;23.70;99.90
7720;DHT22;3902;49.474;8.616;2023-08-21T05:25:48;23.70;99.90
7720;DHT22;3902;49.474;8.616;2023-08-21T05:28:13;23.70;99.90
7720;DHT22;3902;49.474;8.616;2023-08-21T05:30:39;23.70;99.90
7720;DHT22;3902;49.474;8.616;2023-08-21T05:33:04;23.70;99.90
7720;DHT22;3902;49.474;8.616;2023-08-21T05:35:36;23.80;99.90
7720;DHT22;3902;49.474;8.616;2023-08-21T05:38:03;23.80;99.90
7720;DHT22;3902;49.474;8.616;2023-08-21T05:40:29;23.80;99.90
7720;DHT22;3902;49.474;8.616;2023-08-21T05:42:55;23.80;99.90
7720;DHT22;3902;49.474;8.616;2023-08-21T05:45:20;23.90;99.90
7720;DHT22;3902;49.474;8.616;2023-08-21T05:47:45;23.90;99.90
7720;DHT22;3902;49.474;8.616;2023-08-21T05:50:11;23.90;99.90
7720;DHT22;3902;49.474;8.616;2023-08-21T05:52:37;23.90;99.90
7720;DHT22;3902;49.474;8.616;2023-08-21T05:55:02;23.90;99.90
7720;DHT22;3902;49.474;8.616;2023-08-21T05:57:28;23.90;99.90
7720;DHT22;3902;49.474;8.616;2023-08-21T05:59:53;23.90;99.90
7720;DHT22;3902;49.474;8.616;2023-08-21T06:02:19;24.00;99.90
7720;DHT22;3902;49.474;8.616;2023-08-21T06:04:45;24.00;99.90
7720;DHT22;3902;49.474;8.616;2023-08-21T06:07:11;24.00;99.90
7720;DHT22;3902;49.474;8.616;2023-08-21T06:09:36;24.00;99.90
7720;DHT22;3902;49.474;8.616;2023-08-21T06:12:03;24.00;99.90
7720;DHT22;3902;49.474;8.616;2023-08-21T06:14:29;24.10;99.90
7720;DHT22;3902;49.474;8.616;2023-08-21T06:16:57;24.10;99.90
7720;DHT22;3902;49.474;8.616;2023-08-21T06:19:23;24.10;99.90
7720;DHT22;3902;49.474;8.616;2023-08-21T06:21:48;24.20;99.90
7720;DHT22;3902;49.474;8.616;2023-08-21T06:24:14;24.20;99.90
7720;DHT22;3902;49.474;8.616;2023-08-21T06:26:40;24.20;99.90
7720;DHT22;3902;49.474;8.616;2023-08-21T06:29:06;24.20;99.90
7720;DHT22;3902;49.474;8.616;2023-08-21T06:31:31;24.20;99.90
7720;DHT22;3902;49.474;8.616;2023-08-21T06:33:57;24.30;99.90
7720;DHT22;3902;49.474;8.616;2023-08-21T06:36:22;24.30;99.90
7720;DHT22;3902;49.474;8.616;2023-08-21T06:38:48;24.40;99.90
7720;DHT22;3902;49.474;8.616;2023-08-21T06:41:13;24.40;99.90
7720;DHT22;3902;49.474;8.616;2023-08-21T06:43:39;24.40;99.90
7720;DHT22;3902;49.474;8.616;2023-08-21T06:46:05;24.40;99.90
7720;DHT22;3902;49.474;8.616;2023-08-21T06:48:30;24.50;99.90
7720;DHT22;3902;49.474;8.616;2023-08-21T06:50:56;24.50;99.90
7720;DHT22;3902;49.474;8.616;2023-08-21T06:53:22;24.50;99.90
7720;DHT22;3902;49.474;8.616;2023-08-21T06:55:47;24.50;99.90
7720;DHT22;3902;49.474;8.616;2023-08-21T06:58:13;24.50;99.90
7720;DHT22;3902;49.474;8.616;2023-08-21T07:00:39;24.50;99.90
7720;DHT22;3902;49.474;8.616;2023-08-21T07:03:04;24.60;99.90
7720;DHT22;3902;49.474;8.616;2023-08-21T07:05:36;24.60;99.90
7720;DHT22;3902;49.474;8.616;2023-08-21T07:08:02;24.70;99.90
7720;DHT22;3902;49.474;8.616;2023-08-21T07:10:28;24.70;99.90
7720;DHT22;3902;49.474;8.616;2023-08-21T07:12:55;24.70;99.90
7720;DHT22;3902;49.474;8.616;2023-08-21T07:15:20;24.70;99.90
7720;DHT22;3902;49.474;8.616;2023-08-21T07:17:46;24.70;99.90
7720;DHT22;3902;49.474;8.616;2023-08-21T07:20:12;24.80;99.90
7720;DHT22;3902;49.474;8.616;2023-08-21T07:22:38;24.80;99.90
7720;DHT22;3902;49.474;8.616;2023-08-21T07:25:04;24.80;99.90
7720;DHT22;3902;49.474;8.616;2023-08-21T07:27:31;24.80;99.90
7720;DHT22;3902;49.474;8.616;2023-08-21T07:29:56;24.90;99.90
7720;DHT22;3902;49.474;8.616;2023-08-21T07:32:22;24.90;99.90
7720;DHT22;3902;49.474;8.616;2023-08-21T07:34:51;24.90;99.90
7720;DHT22;3902;49.474;8.616;2023-08-21T07:37:16;24.90;99.90
7720;DHT22;3902;49.474;8.616;2023-08-21T07:39:42;25.00;99.90
7720;DHT22;3902;49.474;8.616;2023-08-21T07:42:07;25.00;99.90
7720;DHT22;3902;49.474;8.616;2023-08-21T07:44:33;25.10;99.90
7720;DHT22;3902;49.474;8.616;2023-08-21T07:46:58;25.10;99.90
7720;DHT22;3902;49.474;8.616;2023-08-21T07:49:24;25.10;99.90
7720;DHT22;3902;49.474;8.616;2023-08-21T07:51:49;25.20;99.90
7720;DHT22;3902;49.474;8.616;2023-08-21T07:54:15;25.20;99.90
7720;DHT22;3902;49.474;8.616;2023-08-21T07:56:40;25.20;99.90
7720;DHT22;3902;49.474;8.616;2023-08-21T07:59:06;25.30;99.90
7720;DHT22;3902;49.474;8.616;2023-08-21T08:01:32;25.30;99.90
7720;DHT22;3902;49.474;8.616;2023-08-21T08:03:58;25.30;99.90
7720;DHT22;3902;49.474;8.616;2023-08-21T08:06:23;25.40;99.90
7720;DHT22;3902;49.474;8.616;2023-08-21T08:08:49;25.50;99.90
7720;DHT22;3902;49.474;8.616;2023-08-21T08:11:15;25.50;99.90
7720;DHT22;3902;49.474;8.616;2023-08-21T08:13:41;25.50;99.90
7720;DHT22;3902;49.474;8.616;2023-08-21T08:16:06;25.60;99.90
7720;DHT22;3902;49.474;8.616;2023-08-21T08:18:32;25.60;99.90
7720;DHT22;3902;49.474;8.616;2023-08-21T08:20:57;25.70;99.90
7720;DHT22;3902;49.474;8.616;2023-08-21T08:23:23;25.70;99.90
7720;DHT22;3902;49.474;8.616;2023-08-21T08:25:49;25.80;99.90
7720;DHT22;3902;49.474;8.616;2023-08-21T08:28:15;25.80;99.90
7720;DHT22;3902;49.474;8.616;2023-08-21T08:30:40;25.90;99.90
7720;DHT22;3902;49.474;8.616;2023-08-21T08:33:06;26.00;99.90
7720;DHT22;3902;49.474;8.616;2023-08-21T08:35:31;26.00;99.90
7720;DHT22;3902;49.474;8.616;2023-08-21T08:37:57;26.00;99.90
7720;DHT22;3902;49.474;8.616;2023-08-21T08:40:22;26.10;99.90
7720;DHT22;3902;49.474;8.616;2023-08-21T08:42:48;26.10;99.90
7720;DHT22;3902;49.474;8.616;2023-08-21T08:45:13;26.10;99.90
7720;DHT22;3902;49.474;8.616;2023-08-21T08:47:42;26.20;99.90
7720;DHT22;3902;49.474;8.616;2023-08-21T08:50:08;26.30;99.90
7720;DHT22;3902;49.474;8.616;2023-08-21T08:52:36;26.40;99.90
7720;DHT22;3902;49.474;8.616;2023-08-21T08:55:03;26.50;99.90
7720;DHT22;3902;49.474;8.616;2023-08-21T08:57:30;26.50;99.90
7720;DHT22;3902;49.474;8.616;2023-08-21T08:59:55;26.60;99.90
7720;DHT22;3902;49.474;8.616;2023-08-21T09:02:22;26.70;99.90
7720;DHT22;3902;49.474;8.616;2023-08-21T09:04:49;26.70;99.90
7720;DHT22;3902;49.474;8.616;2023-08-21T09:07:17;26.70;99.90
7720;DHT22;3902;49.474;8.616;2023-08-21T09:09:47;26.80;99.90
7720;DHT22;3902;49.474;8.616;2023-08-21T09:12:18;26.80;99.90
7720;DHT22;3902;49.474;8.616;2023-08-21T09:14:44;26.90;99.90
7720;DHT22;3902;49.474;8.616;2023-08-21T09:17:10;27.00;99.90
7720;DHT22;3902;49.474;8.616;2023-08-21T09:19:36;27.00;99.90
7720;DHT22;3902;49.474;8.616;2023-08-21T09:22:13;27.10;99.90
7720;DHT22;3902;49.474;8.616;2023-08-21T09:24:40;27.20;99.90
7720;DHT22;3902;49.474;8.616;2023-08-21T09:27:13;27.40;99.90
7720;DHT22;3902;49.474;8.616;2023-08-21T09:29:41;27.40;99.90
7720;DHT22;3902;49.474;8.616;2023-08-21T09:32:07;27.40;99.90
7720;DHT22;3902;49.474;8.616;2023-08-21T09:34:36;27.50;99.90
7720;DHT22;3902;49.474;8.616;2023-08-21T09:37:07;27.50;99.90
7720;DHT22;3902;49.474;8.616;2023-08-21T09:39:36;27.60;99.90
7720;DHT22;3902;49.474;8.616;2023-08-21T09:42:08;27.70;99.90
7720;DHT22;3902;49.474;8.616;2023-08-21T09:44:38;27.80;99.90
7720;DHT22;3902;49.474;8.616;2023-08-21T09:47:08;27.90;99.90
7720;DHT22;3902;49.474;8.616;2023-08-21T09:49:35;27.90;99.90
7720;DHT22;3902;49.474;8.616;2023-08-21T09:52:03;28.00;99.90
7720;DHT22;3902;49.474;8.616;2023-08-21T09:54:30;28.10;99.90
7720;DHT22;3902;49.474;8.616;2023-08-21T09:56:56;28.20;99.90
7720;DHT22;3902;49.474;8.616;2023-08-21T09:59:23;28.30;99.90
7720;DHT22;3902;49.474;8.616;2023-08-21T10:01:50;28.40;99.90
7720;DHT22;3902;49.474;8.616;2023-08-21T10:04:17;28.40;99.90
7720;DHT22;3902;49.474;8.616;2023-08-21T10:06:44;28.50;99.90
7720;DHT22;3902;49.474;8.616;2023-08-21T10:09:11;28.60;99.90
7720;DHT22;3902;49.474;8.616;2023-08-21T10:11:37;28.70;99.90
7720;DHT22;3902;49.474;8.616;2023-08-21T10:14:03;28.70;99.90
7720;DHT22;3902;49.474;8.616;2023-08-21T10:16:29;28.90;99.90
7720;DHT22;3902;49.474;8.616;2023-08-21T10:18:54;28.90;99.90
7720;DHT22;3902;49.474;8.616;2023-08-21T10:21:21;29.10;99.90
7720;DHT22;3902;49.474;8.616;2023-08-21T10:23:49;29.10;99.90
7720;DHT22;3902;49.474;8.616;2023-08-21T10:26:15;29.10;99.90
7720;DHT22;3902;49.474;8.616;2023-08-21T10:28:42;29.20;99.90
7720;DHT22;3902;49.474;8.616;2023-08-21T10:33:57;29.40;99.90
7720;DHT22;3902;49.474;8.616;2023-08-21T10:39:24;29.70;99.90
7720;DHT22;3902;49.474;8.616;2023-08-21T10:49:38;30.10;99.90
7720;DHT22;3902;49.474;8.616;2023-08-21T10:52:05;30.10;99.90
7720;DHT22;3902;49.474;8.616;2023-08-21T10:54:43;30.30;99.90
7720;DHT22;3902;49.474;8.616;2023-08-21T10:57:09;30.60;99.90
7720;DHT22;3902;49.474;8.616;2023-08-21T10:59:34;30.70;99.90
7720;DHT22;3902;49.474;8.616;2023-08-21T11:02:00;31.10;99.90
7720;DHT22;3902;49.474;8.616;2023-08-21T11:04:25;31.60;99.90
7720;DHT22;3902;49.474;8.616;2023-08-21T11:06:51;32.40;99.90
7720;DHT22;3902;49.474;8.616;2023-08-21T11:09:17;33.20;99.90
7720;DHT22;3902;49.474;8.616;2023-08-21T11:11:44;33.70;99.90
7720;DHT22;3902;49.474;8.616;2023-08-21T11:14:09;34.30;99.90
7720;DHT22;3902;49.474;8.616;2023-08-21T11:16:35;35.00;99.90
7720;DHT22;3902;49.474;8.616;2023-08-21T11:19:04;35.00;99.90
7720;DHT22;3902;49.474;8.616;2023-08-21T11:21:30;35.40;99.90
7720;DHT22;3902;49.474;8.616;2023-08-21T11:23:56;35.60;99.90
7720;DHT22;3902;49.474;8.616;2023-08-21T11:26:22;35.90;99.90
7720;DHT22;3902;49.474;8.616;2023-08-21T11:28:50;36.60;99.90
7720;DHT22;3902;49.474;8.616;2023-08-21T11:31:16;37.10;99.90
7720;DHT22;3902;49.474;8.616;2023-08-21T11:33:49;37.50;99.90
7720;DHT22;3902;49.474;8.616;2023-08-21T11:36:15;37.90;99.90
7720;DHT22;3902;49.474;8.616;2023-08-21T11:38:41;38.20;99.90
7720;DHT22;3902;49.474;8.616;2023-08-21T11:41:06;38.40;99.90
7720;DHT22;3902;49.474;8.616;2023-08-21T11:43:35;38.70;99.40
7720;DHT22;3902;49.474;8.616;2023-08-21T11:46:02;38.70;98.00
7720;DHT22;3902;49.474;8.616;2023-08-21T11:48:28;39.10;97.80
7720;DHT22;3902;49.474;8.616;2023-08-21T11:50:55;39.30;97.20
7720;DHT22;3902;49.474;8.616;2023-08-21T11:53:50;39.40;97.10
7720;DHT22;3902;49.474;8.616;2023-08-21T11:56:17;39.70;96.00
7720;DHT22;3902;49.474;8.616;2023-08-21T11:58:44;40.10;95.90
7720;DHT22;3902;49.474;8.616;2023-08-21T12:01:18;40.30;94.80
7720;DHT22;3902;49.474;8.616;2023-08-21T12:03:44;40.60;94.60
7720;DHT22;3902;49.474;8.616;2023-08-21T12:06:11;40.90;93.40
7720;DHT22;3902;49.474;8.616;2023-08-21T12:08:38;41.00;92.20
7720;DHT22;3902;49.474;8.616;2023-08-21T12:11:04;41.20;91.90
7720;DHT22;3902;49.474;8.616;2023-08-21T12:13:30;41.40;91.90
7720;DHT22;3902;49.474;8.616;2023-08-21T12:15:56;41.50;91.70
7720;DHT22;3902;49.474;8.616;2023-08-21T12:18:21;40.90;90.80
7720;DHT22;3902;49.474;8.616;2023-08-21T12:20:47;41.10;90.30
7720;DHT22;3902;49.474;8.616;2023-08-21T12:23:12;41.20;90.30
7720;DHT22;3902;49.474;8.616;2023-08-21T12:25:38;41.40;90.10
7720;DHT22;3902;49.474;8.616;2023-08-21T12:28:06;41.60;88.00
7720;DHT22;3902;49.474;8.616;2023-08-21T12:30:31;41.70;87.60
7720;DHT22;3902;49.474;8.616;2023-08-21T12:32:57;42.00;87.10
7720;DHT22;3902;49.474;8.616;2023-08-21T12:35:23;42.00;85.40
7720;DHT22;3902;49.474;8.616;2023-08-21T12:37:48;42.20;85.20
7720;DHT22;3902;49.474;8.616;2023-08-21T12:40:14;42.30;83.50
7720;DHT22;3902;49.474;8.616;2023-08-21T12:42:39;42.40;83.90
7720;DHT22;3902;49.474;8.616;2023-08-21T12:45:05;42.50;85.20
7720;DHT22;3902;49.474;8.616;2023-08-21T12:47:31;42.60;83.70
7720;DHT22;3902;49.474;8.616;2023-08-21T12:49:56;42.80;84.30
7720;DHT22;3902;49.474;8.616;2023-08-21T12:52:22;42.90;81.20
7720;DHT22;3902;49.474;8.616;2023-08-21T12:54:47;42.80;81.00
7720;DHT22;3902;49.474;8.616;2023-08-21T12:57:13;42.60;82.70
7720;DHT22;3902;49.474;8.616;2023-08-21T12:59:39;42.00;76.70
7720;DHT22;3902;49.474;8.616;2023-08-21T13:02:05;41.90;77.70
7720;DHT22;3902;49.474;8.616;2023-08-21T13:04:30;41.20;77.40
7720;DHT22;3902;49.474;8.616;2023-08-21T13:06:56;41.50;79.40
7720;DHT22;3902;49.474;8.616;2023-08-21T13:09:21;41.60;79.70
7720;DHT22;3902;49.474;8.616;2023-08-21T13:11:50;41.80;79.40
7720;DHT22;3902;49.474;8.616;2023-08-21T13:14:16;41.90;79.20
7720;DHT22;3902;49.474;8.616;2023-08-21T13:16:41;42.00;75.90
7720;DHT22;3902;49.474;8.616;2023-08-21T13:19:07;41.90;77.20
7720;DHT22;3902;49.474;8.616;2023-08-21T13:21:32;41.50;76.10
7720;DHT22;3902;49.474;8.616;2023-08-21T13:23:58;41.40;74.70
7720;DHT22;3902;49.474;8.616;2023-08-21T13:26:23;41.60;75.00
7720;DHT22;3902;49.474;8.616;2023-08-21T13:28:51;41.40;73.70
7720;DHT22;3902;49.474;8.616;2023-08-21T13:31:17;41.40;74.80
7720;DHT22;3902;49.474;8.616;2023-08-21T13:33:46;41.60;77.00
7720;DHT22;3902;49.474;8.616;2023-08-21T13:36:12;41.80;75.90
7720;DHT22;3902;49.474;8.616;2023-08-21T13:38:37;41.90;75.00
7720;DHT22;3902;49.474;8.616;2023-08-21T13:41:03;42.00;73.60
7720;DHT22;3902;49.474;8.616;2023-08-21T13:43:29;42.00;73.60
7720;DHT22;3902;49.474;8.616;2023-08-21T13:45:54;41.40;73.70
7720;DHT22;3902;49.474;8.616;2023-08-21T13:48:20;40.70;73.20
7720;DHT22;3902;49.474;8.616;2023-08-21T13:50:45;40.50;74.50
7720;DHT22;3902;49.474;8.616;2023-08-21T13:53:11;40.60;75.90
7720;DHT22;3902;49.474;8.616;2023-08-21T13:55:36;40.80;76.50
7720;DHT22;3902;49.474;8.616;2023-08-21T13:58:02;40.90;76.90
7720;DHT22;3902;49.474;8.616;2023-08-21T14:00:27;41.20;77.80
7720;DHT22;3902;49.474;8.616;2023-08-21T14:02:53;41.20;76.10
7720;DHT22;3902;49.474;8.616;2023-08-21T14:05:19;40.90;76.10
7720;DHT22;3902;49.474;8.616;2023-08-21T14:07:44;40.80;75.90
7720;DHT22;3902;49.474;8.616;2023-08-21T14:10:10;40.40;77.00
7720;DHT22;3902;49.474;8.616;2023-08-21T14:12:37;40.00;77.20
7720;DHT22;3902;49.474;8.616;2023-08-21T14:15:02;39.60;77.00
7720;DHT22;3902;49.474;8.616;2023-08-21T14:17:28;39.20;78.60
7720;DHT22;3902;49.474;8.616;2023-08-21T14:19:54;39.00;77.70
7720;DHT22;3902;49.474;8.616;2023-08-21T14:22:20;38.70;78.50
7720;DHT22;3902;49.474;8.616;2023-08-21T14:24:45;38.60;79.50
7720;DHT22;3902;49.474;8.616;2023-08-21T14:27:11;38.50;79.50
7720;DHT22;3902;49.474;8.616;2023-08-21T14:29:36;38.40;80.50
7720;DHT22;3902;49.474;8.616;2023-08-21T14:32:02;38.40;81.00
7720;DHT22;3902;49.474;8.616;2023-08-21T14:34:27;38.30;80.00
7720;DHT22;3902;49.474;8.616;2023-08-21T14:36:53;38.30;81.40
7720;DHT22;3902;49.474;8.616;2023-08-21T14:39:21;38.30;81.40
7720;DHT22;3902;49.474;8.616;2023-08-21T14:41:47;38.30;80.00
7720;DHT22;3902;49.474;8.616;2023-08-21T14:44:12;38.40;81.10
7720;DHT22;3902;49.474;8.616;2023-08-21T14:46:38;38.40;81.00
7720;DHT22;3902;49.474;8.616;2023-08-21T14:49:03;38.40;80.50
7720;DHT22;3902;49.474;8.616;2023-08-21T14:51:29;38.50;81.30
7720;DHT22;3902;49.474;8.616;2023-08-21T14:53:54;38.50;80.10
7720;DHT22;3902;49.474;8.616;2023-08-21T14:56:21;38.50;79.90
7720;DHT22;3902;49.474;8.616;2023-08-21T14:58:47;38.20;76.90
7720;DHT22;3902;49.474;8.616;2023-08-21T15:01:12;38.20;77.80
7720;DHT22;3902;49.474;8.616;2023-08-21T15:03:38;38.10;77.80
7720;DHT22;3902;49.474;8.616;2023-08-21T15:06:04;38.20;79.30
7720;DHT22;3902;49.474;8.616;2023-08-21T15:08:30;38.10;77.10
7720;DHT22;3902;49.474;8.616;2023-08-21T15:10:55;37.80;77.20
7720;DHT22;3902;49.474;8.616;2023-08-21T15:13:21;37.80;80.20
7720;DHT22;3902;49.474;8.616;2023-08-21T15:15:46;37.80;80.40
7720;DHT22;3902;49.474;8.616;2023-08-21T15:18:12;37.80;79.70
7720;DHT22;3902;49.474;8.616;2023-08-21T15:20:38;37.80;81.10
7720;DHT22;3902;49.474;8.616;2023-08-21T15:23:03;37.80;79.30
7720;DHT22;3902;49.474;8.616;2023-08-21T15:25:29;37.80;78.90
7720;DHT22;3902;49.474;8.616;2023-08-21T15:27:54;37.90;81.40
7720;DHT22;3902;49.474;8.616;2023-08-21T15:30:20;37.60;77.60
7720;DHT22;3902;49.474;8.616;2023-08-21T15:32:46;37.20;78.20
7720;DHT22;3902;49.474;8.616;2023-08-21T15:35:13;37.30;80.40
7720;DHT22;3902;49.474;8.616;2023-08-21T15:37:38;37.00;80.00
7720;DHT22;3902;49.474;8.616;2023-08-21T15:40:04;37.00;81.10
7720;DHT22;3902;49.474;8.616;2023-08-21T15:42:30;36.90;82.20
7720;DHT22;3902;49.474;8.616;2023-08-21T15:44:57;36.90;82.30
7720;DHT22;3902;49.474;8.616;2023-08-21T15:47:22;36.90;82.30
7720;DHT22;3902;49.474;8.616;2023-08-21T15:49:48;36.90;83.90
7720;DHT22;3902;49.474;8.616;2023-08-21T15:52:13;36.90;82.80
7720;DHT22;3902;49.474;8.616;2023-08-21T15:54:39;36.90;83.80
7720;DHT22;3902;49.474;8.616;2023-08-21T15:57:04;36.90;83.70
7720;DHT22;3902;49.474;8.616;2023-08-21T15:59:30;36.90;83.40
7720;DHT22;3902;49.474;8.616;2023-08-21T16:01:57;36.90;82.50
7720;DHT22;3902;49.474;8.616;2023-08-21T16:04:22;36.90;83.40
7720;DHT22;3902;49.474;8.616;2023-08-21T16:06:48;36.80;83.50
7720;DHT22;3902;49.474;8.616;2023-08-21T16:09:14;36.80;83.70
7720;DHT22;3902;49.474;8.616;2023-08-21T16:11:40;36.70;83.80
7720;DHT22;3902;49.474;8.616;2023-08-21T16:14:05;36.70;83.40
7720;DHT22;3902;49.474;8.616;2023-08-21T16:16:33;36.60;83.30